Time;durP1;ratioP1;P1;durP2;ratioP2;P2;SDS_P1;SDS_P2;PMS_P1;PMS_P2;Temp;Humidity;BMP_temperature;BMP_pressure;BME280_temperature;BME280_humidity;BME280_pressure;Samples;Min_cycle;Max_cycle;Signal;HPM_P1;HPM_P2
2021/07/12 00:00:33;;;;;;;;;;;;;;;25.15;45.01;101516.84;4960685;29;20357;-89
2021/07/12 00:02:59;;;;;;;;;;;;;;;25.36;44.33;101511.97;4943740;29;20377;-87
2021/07/12 00:05:25;;;;;;;;;;;;;;;25.68;43.31;101506.97;4943537;29;19918;-88
2021/07/12 00:07:50;;;;;;;;;;;;;;;25.49;43.99;101495.00;4943334;29;19918;-89
2021/07/12 00:10:17;;;;;;;;;;;;;;;25.09;45.01;101501.72;4942596;29;19932;-86
2021/07/12 00:12:43;;;;;;;;;;;;;;;25.40;44.43;101505.09;4943376;29;19919;-87
2021/07/12 00:15:09;;;;;;;;;;;;;;;25.41;44.52;101501.31;4943613;29;19962;-88
2021/07/12 00:17:35;;;;;;;;;;;;;;;25.01;45.31;101508.00;4961125;29;19918;-88
2021/07/12 00:20:01;;;;;;;;;;;;;;;24.47;47.34;101504.06;4944225;29;19926;-89
2021/07/12 00:22:26;;;;;;;;;;;;;;;24.22;47.76;101495.38;4944155;29;20347;-86
2021/07/12 00:24:51;;;;;;;;;;;;;;;24.84;46.71;101489.44;4943328;29;19919;-88
2021/07/12 00:27:16;;;;;;;;;;;;;;;23.96;49.40;101481.25;4960116;29;20387;-84
2021/07/12 00:29:41;;;;;;;;;;;;;;;24.47;47.77;101474.50;4960583;29;20367;-86
2021/07/12 00:32:07;;;;;;;;;;;;;;;24.70;47.36;101476.94;4960661;29;19919;-89
2021/07/12 00:34:32;;;;;;;;;;;;;;;25.13;45.80;101473.56;4943141;29;19914;-88
2021/07/12 00:36:57;;;;;;;;;;;;;;;24.83;46.66;101471.94;4960369;28;19925;-87
2021/07/12 00:39:22;;;;;;;;;;;;;;;24.70;46.86;101476.94;4944021;29;19925;-84
2021/07/12 00:41:48;;;;;;;;;;;;;;;25.29;45.03;101472.94;4960359;29;20042;-85
2021/07/12 00:44:13;;;;;;;;;;;;;;;25.47;44.63;101467.44;4943046;29;19926;-83
2021/07/12 00:46:38;;;;;;;;;;;;;;;25.34;45.09;101475.25;4943489;29;19918;-87
2021/07/12 00:49:04;;;;;;;;;;;;;;;25.54;44.15;101466.81;4943569;29;19973;-87
2021/07/12 00:51:29;;;;;;;;;;;;;;;25.53;44.29;101465.97;4960507;29;19946;-87
2021/07/12 00:53:54;;;;;;;;;;;;;;;25.72;44.18;101464.06;4943291;29;19981;-88
2021/07/12 00:56:20;;;;;;;;;;;;;;;25.39;44.94;101467.34;4959165;29;20087;-87
2021/07/12 00:58:45;;;;;;;;;;;;;;;25.73;44.33;101463.06;4943257;29;20372;-86
2021/07/12 01:01:11;;;;;;;;;;;;;;;25.73;44.46;101463.91;4942207;29;20009;-86
2021/07/12 01:03:36;;;;;;;;;;;;;;;25.34;45.52;101457.78;4942566;29;20372;-87
2021/07/12 01:06:02;;;;;;;;;;;;;;;25.28;45.76;101454.53;4943170;29;19918;-87
2021/07/12 01:08:27;;;;;;;;;;;;;;;25.65;44.64;101445.31;4951524;29;19958;-87
2021/07/12 01:10:59;;;;;;;;;;;;;;;25.18;46.38;101442.66;4956639;29;19922;-82
2021/07/12 01:13:35;;;;;;;;;;;;;;;25.41;46.02;101437.59;4951395;29;19918;-83
2021/07/12 01:16:00;;;;;;;;;;;;;;;25.69;45.23;101443.06;4947504;29;19945;-85
2021/07/12 01:18:27;;;;;;;;;;;;;;;25.93;44.66;101442.44;4963911;29;19967;-88
2021/07/12 01:21:06;;;;;;;;;;;;;;;25.83;44.64;101442.53;4943243;29;19973;-88
2021/07/12 01:23:43;;;;;;;;;;;;;;;25.50;45.26;101441.34;4943035;29;19925;-86
2021/07/12 01:26:28;;;;;;;;;;;;;;;25.58;45.38;101433.09;4942672;29;19948;-87
2021/07/12 01:29:11;;;;;;;;;;;;;;;25.26;46.28;101440.00;4942349;29;19919;-87
2021/07/12 01:31:56;;;;;;;;;;;;;;;25.37;46.09;101429.75;4941664;29;19923;-86
2021/07/12 01:34:31;;;;;;;;;;;;;;;24.90;47.49;101439.03;4941944;29;19954;-87
2021/07/12 01:37:03;;;;;;;;;;;;;;;24.83;47.91;101440.66;4942174;29;20284;-88
2021/07/12 01:39:32;;;;;;;;;;;;;;;25.23;47.28;101442.22;4942260;29;19943;-89
2021/07/12 01:42:06;;;;;;;;;;;;;;;25.24;46.93;101432.84;4961401;29;19943;-87
2021/07/12 01:44:32;;;;;;;;;;;;;;;25.26;46.81;101433.59;4942721;29;20027;-88
2021/07/12 01:47:03;;;;;;;;;;;;;;;25.26;46.87;101439.13;4941901;29;20304;-82
2021/07/12 01:49:51;;;;;;;;;;;;;;;25.38;46.91;101435.16;4958530;28;19927;-83
2021/07/12 01:52:23;;;;;;;;;;;;;;;25.78;46.00;101427.41;4923514;29;19929;-88
2021/07/12 01:55:07;;;;;;;;;;;;;;;25.76;46.03;101424.78;4943201;29;19977;-86
2021/07/12 01:57:35;;;;;;;;;;;;;;;25.86;45.83;101413.59;4942075;29;19918;-91
2021/07/12 02:00:04;;;;;;;;;;;;;;;25.80;45.78;101417.91;4942129;29;19919;-86
2021/07/12 02:02:31;;;;;;;;;;;;;;;26.05;45.17;101412.59;4958532;29;20404;-86
2021/07/12 02:04:59;;;;;;;;;;;;;;;25.93;45.44;101420.25;4941389;29;19919;-87
2021/07/12 02:07:25;;;;;;;;;;;;;;;25.86;45.34;101418.28;4959542;29;20410;-87
2021/07/12 02:09:52;;;;;;;;;;;;;;;25.92;45.36;101428.72;4958778;29;19985;-87
2021/07/12 02:12:18;;;;;;;;;;;;;;;25.81;45.52;101418.78;4943201;29;19919;-89
2021/07/12 02:14:43;;;;;;;;;;;;;;;25.77;46.13;101417.34;4944413;29;20554;-89
2021/07/12 02:17:09;;;;;;;;;;;;;;;25.92;45.51;101423.19;4943897;29;19918;-87
2021/07/12 02:19:35;;;;;;;;;;;;;;;25.90;45.45;101414.19;4944848;29;19926;-87
2021/07/12 02:22:01;;;;;;;;;;;;;;;25.97;45.18;101413.38;4945328;29;19926;-84
2021/07/12 02:24:28;;;;;;;;;;;;;;;25.84;45.28;101396.28;4963863;29;19922;-83
2021/07/12 02:26:54;;;;;;;;;;;;;;;25.85;45.36;101402.69;4962090;29;20338;-87
2021/07/12 02:29:20;;;;;;;;;;;;;;;26.03;45.10;101399.91;4962309;29;20441;-88
2021/07/12 02:31:47;;;;;;;;;;;;;;;25.77;45.85;101398.81;4943431;29;19925;-87
2021/07/12 02:34:13;;;;;;;;;;;;;;;25.85;45.22;101394.34;4943655;29;19925;-89
2021/07/12 02:36:38;;;;;;;;;;;;;;;25.99;45.29;101391.91;4959863;29;19918;-88
2021/07/12 02:39:04;;;;;;;;;;;;;;;26.12;44.69;101390.66;4958703;29;19919;-86
2021/07/12 02:41:33;;;;;;;;;;;;;;;25.98;45.18;101389.28;4942185;29;19918;-88
2021/07/12 02:44:00;;;;;;;;;;;;;;;26.08;45.33;101389.22;4941561;29;20359;-90
2021/07/12 02:46:28;;;;;;;;;;;;;;;26.06;44.94;101383.84;4945371;29;20372;-87
2021/07/12 02:48:54;;;;;;;;;;;;;;;26.09;45.34;101382.63;4944040;29;19918;-88
2021/07/12 02:51:23;;;;;;;;;;;;;;;25.99;45.72;101374.44;4961397;28;19931;-88
2021/07/12 02:53:49;;;;;;;;;;;;;;;25.88;45.79;101381.06;4942250;29;19930;-87
2021/07/12 02:56:15;;;;;;;;;;;;;;;25.87;45.68;101364.59;4942299;29;20376;-87
2021/07/12 02:58:40;;;;;;;;;;;;;;;25.53;46.63;101373.63;4957686;28;20273;-89
2021/07/12 03:01:05;;;;;;;;;;;;;;;25.38;47.04;101365.91;4946175;29;19922;-89
2021/07/12 03:03:32;;;;;;;;;;;;;;;25.71;46.13;101360.66;4931118;29;19923;-88
2021/07/12 03:06:11;;;;;;;;;;;;;;;25.95;45.80;101361.88;4949596;29;19923;-88
2021/07/12 03:08:42;;;;;;;;;;;;;;;25.92;46.15;101362.19;4965921;29;19918;-87
2021/07/12 03:11:10;;;;;;;;;;;;;;;25.78;46.15;101358.97;4943918;29;19923;-88
2021/07/12 03:13:44;;;;;;;;;;;;;;;26.00;45.73;101354.84;4944689;29;19922;-89
2021/07/12 03:16:10;;;;;;;;;;;;;;;26.03;45.66;101358.31;4944720;29;19918;-88
2021/07/12 03:18:40;;;;;;;;;;;;;;;26.13;45.57;101359.09;4961723;29;19941;-88
2021/07/12 03:21:05;;;;;;;;;;;;;;;25.63;46.81;101346.72;4944462;29;19927;-85
2021/07/12 03:23:34;;;;;;;;;;;;;;;25.51;47.32;101350.78;4944084;29;19926;-88
2021/07/12 03:26:01;;;;;;;;;;;;;;;25.49;47.38;101339.84;4944443;29;19968;-88
2021/07/12 03:28:27;;;;;;;;;;;;;;;25.40;47.58;101341.66;4945000;29;20021;-89
2021/07/12 03:30:53;;;;;;;;;;;;;;;25.74;47.04;101349.25;4944898;29;19918;-87
2021/07/12 03:33:20;;;;;;;;;;;;;;;26.03;46.47;101341.69;4944546;29;19918;-86
2021/07/12 03:35:46;;;;;;;;;;;;;;;25.77;46.95;101337.84;4945000;29;19926;-88
2021/07/12 03:38:13;;;;;;;;;;;;;;;25.44;47.94;101339.47;4928063;29;19924;-88
2021/07/12 03:40:40;;;;;;;;;;;;;;;24.99;50.08;101335.69;4943901;29;19926;-88
2021/07/12 03:43:05;;;;;;;;;;;;;;;25.12;49.37;101335.28;4943422;29;19925;-87
2021/07/12 03:45:31;;;;;;;;;;;;;;;25.61;48.15;101344.13;4961636;29;19922;-89
2021/07/12 03:47:56;;;;;;;;;;;;;;;25.01;50.03;101338.28;4961927;29;19929;-85
2021/07/12 03:50:24;;;;;;;;;;;;;;;25.54;47.78;101337.47;4943491;29;19931;-87
2021/07/12 03:52:52;;;;;;;;;;;;;;;25.37;48.80;101341.13;4961639;29;19918;-85
2021/07/12 03:55:19;;;;;;;;;;;;;;;25.60;48.52;101338.72;4961582;29;19969;-83
2021/07/12 03:57:45;;;;;;;;;;;;;;;24.91;50.13;101342.00;4944122;29;19919;-89
2021/07/12 04:00:12;;;;;;;;;;;;;;;24.46;52.24;101344.66;4962451;29;19925;-89
2021/07/12 04:02:37;;;;;;;;;;;;;;;25.04;50.57;101343.50;4944857;29;19930;-85
2021/07/12 04:05:04;;;;;;;;;;;;;;;25.78;48.24;101339.56;4929830;29;19922;-86
2021/07/12 04:07:29;;;;;;;;;;;;;;;26.00;47.59;101342.91;4962208;29;19922;-87
2021/07/12 04:09:54;;;;;;;;;;;;;;;26.28;46.69;101351.06;4944287;28;19918;-88
2021/07/12 04:12:23;;;;;;;;;;;;;;;25.97;47.04;101337.66;4961538;29;20332;-84
2021/07/12 04:14:52;;;;;;;;;;;;;;;25.56;48.22;101338.19;4961135;29;19933;-89
2021/07/12 04:17:17;;;;;;;;;;;;;;;25.95;47.24;101337.81;4962116;29;20352;-88
2021/07/12 04:19:43;;;;;;;;;;;;;;;25.91;47.93;101338.31;4944466;29;19933;-88
2021/07/12 04:22:08;;;;;;;;;;;;;;;26.39;46.49;101342.47;4944463;29;19918;-86
2021/07/12 04:24:33;;;;;;;;;;;;;;;26.34;46.29;101337.41;4941857;29;19977;-86
2021/07/12 04:26:58;;;;;;;;;;;;;;;26.61;45.52;101323.47;4942310;29;19919;-85
2021/07/12 04:29:24;;;;;;;;;;;;;;;26.34;46.12;101330.97;4941373;29;20005;-86
2021/07/12 04:31:49;;;;;;;;;;;;;;;26.46;46.23;101328.78;4942362;29;20012;-85
2021/07/12 04:34:14;;;;;;;;;;;;;;;26.24;46.92;101322.78;4941619;29;20005;-86
2021/07/12 04:36:40;;;;;;;;;;;;;;;26.46;46.55;101326.88;4958820;29;19918;-86
2021/07/12 04:39:05;;;;;;;;;;;;;;;26.06;47.54;101317.31;4949026;29;19926;-83
2021/07/12 04:41:30;;;;;;;;;;;;;;;26.01;47.71;101308.59;4951506;29;19918;-83
2021/07/12 04:43:55;;;;;;;;;;;;;;;25.74;48.36;101310.47;4948755;29;19929;-86
2021/07/12 04:46:21;;;;;;;;;;;;;;;25.06;51.51;101306.34;4961364;29;19925;-86
2021/07/12 04:48:46;;;;;;;;;;;;;;;24.69;52.56;101301.78;4930100;29;19927;-88
2021/07/12 04:51:11;;;;;;;;;;;;;;;24.17;55.32;101305.06;4942934;29;20017;-90
2021/07/12 04:53:36;;;;;;;;;;;;;;;25.57;50.84;101300.25;4960778;29;19990;-87
2021/07/12 04:56:03;;;;;;;;;;;;;;;25.96;49.32;101297.09;4942039;29;19918;-88
2021/07/12 04:58:31;;;;;;;;;;;;;;;25.78;49.52;101292.47;4940849;29;19922;-84
2021/07/12 05:00:58;;;;;;;;;;;;;;;26.18;48.38;101292.94;4940177;29;20379;-85
2021/07/12 05:03:29;;;;;;;;;;;;;;;25.74;49.45;101290.16;4940767;29;19972;-87
2021/07/12 05:05:54;;;;;;;;;;;;;;;24.84;53.24;101291.06;4940532;29;20017;-85
2021/07/12 05:08:19;;;;;;;;;;;;;;;24.77;54.07;101292.69;4958130;29;20395;-86
2021/07/12 05:10:44;;;;;;;;;;;;;;;25.81;49.51;101283.81;4940475;29;19927;-83
2021/07/12 05:13:10;;;;;;;;;;;;;;;25.92;50.18;101284.59;4939645;29;20032;-84
2021/07/12 05:15:37;;;;;;;;;;;;;;;26.52;47.76;101287.34;4957199;29;19925;-85
2021/07/12 05:18:02;;;;;;;;;;;;;;;26.20;48.69;101284.44;4957524;29;19973;-87
2021/07/12 05:20:27;;;;;;;;;;;;;;;26.23;49.06;101286.91;4940315;29;19930;-85
2021/07/12 05:22:52;;;;;;;;;;;;;;;25.86;50.20;101279.69;4957109;28;19918;-86
2021/07/12 05:25:18;;;;;;;;;;;;;;;26.00;49.59;101276.38;4939478;29;19919;-85
2021/07/12 05:27:43;;;;;;;;;;;;;;;26.76;47.73;101273.78;4940225;29;19918;-86
2021/07/12 05:30:08;;;;;;;;;;;;;;;27.08;46.31;101269.34;4956664;29;19922;-84
2021/07/12 05:32:34;;;;;;;;;;;;;;;26.83;46.88;101284.03;4957419;29;20005;-85
2021/07/12 05:34:59;;;;;;;;;;;;;;;26.98;46.87;101278.69;4957804;29;20020;-86
2021/07/12 05:37:24;;;;;;;;;;;;;;;27.53;45.16;101268.88;4940243;29;19919;-88
2021/07/12 05:39:50;;;;;;;;;;;;;;;27.14;46.17;101266.72;4940100;29;19934;-86
2021/07/12 05:42:24;;;;;;;;;;;;;;;27.82;45.05;101261.88;4959430;29;19922;-91
2021/07/12 05:44:49;;;;;;;;;;;;;;;27.89;45.19;101268.47;4941506;29;19926;-88
2021/07/12 05:47:14;;;;;;;;;;;;;;;29.06;41.48;101269.75;4941039;29;19919;-87
2021/07/12 05:49:40;;;;;;;;;;;;;;;29.39;41.20;101262.03;4941654;29;19922;-87
2021/07/12 05:52:05;;;;;;;;;;;;;;;29.50;40.68;101264.41;4940783;29;20021;-87
2021/07/12 05:54:30;;;;;;;;;;;;;;;28.79;42.50;101267.31;4941084;29;19965;-88
2021/07/12 05:56:57;;;;;;;;;;;;;;;28.21;44.14;101269.47;4940701;29;19950;-88
2021/07/12 05:59:22;;;;;;;;;;;;;;;27.86;44.75;101263.28;4959223;29;20276;-89
2021/07/12 06:01:47;;;;;;;;;;;;;;;27.94;44.21;101260.44;4940997;29;19915;-89
2021/07/12 06:06:50;;;;;;;;;;;;;;;27.76;44.33;101257.91;4974836;23;19926;-88
2021/07/12 06:09:15;;;;;;;;;;;;;;;28.02;44.26;101258.75;4940370;29;19918;-87
2021/07/12 06:11:41;;;;;;;;;;;;;;;28.03;43.79;101252.13;4941590;29;19918;-86
2021/07/12 06:14:06;;;;;;;;;;;;;;;27.98;43.85;101257.38;4943251;29;19906;-88
2021/07/12 06:16:32;;;;;;;;;;;;;;;28.50;42.57;101242.91;4941037;29;19919;-87
2021/07/12 06:18:57;;;;;;;;;;;;;;;28.92;41.62;101240.78;4940359;29;19928;-86
2021/07/12 06:21:23;;;;;;;;;;;;;;;29.02;40.27;101248.88;4940690;29;19924;-90
2021/07/12 06:23:48;;;;;;;;;;;;;;;28.00;43.37;101258.91;4941013;29;19926;-87
2021/07/12 06:26:13;;;;;;;;;;;;;;;28.27;42.97;101256.75;4940115;29;19958;-87
2021/07/12 06:28:39;;;;;;;;;;;;;;;28.06;43.41;101260.97;4940419;29;19951;-87
2021/07/12 06:31:04;;;;;;;;;;;;;;;27.52;44.90;101267.16;4939233;29;19980;-86
2021/07/12 06:33:29;;;;;;;;;;;;;;;27.68;44.42;101263.47;4938375;29;19918;-86
2021/07/12 06:35:55;;;;;;;;;;;;;;;27.89;43.22;101259.28;4942507;29;19922;-86
2021/07/12 06:38:20;;;;;;;;;;;;;;;28.32;42.22;101262.63;4942825;29;19918;-88
2021/07/12 06:40:45;;;;;;;;;;;;;;;27.80;43.15;101263.97;4943172;29;20265;-86
2021/07/12 06:43:11;;;;;;;;;;;;;;;28.36;41.69;101269.59;4960699;29;20036;-85
2021/07/12 06:45:36;;;;;;;;;;;;;;;27.56;44.29;101276.84;4942346;29;19973;-86
2021/07/12 06:48:03;;;;;;;;;;;;;;;27.86;43.65;101273.53;4943226;29;20363;-87
2021/07/12 06:50:28;;;;;;;;;;;;;;;28.41;42.08;101266.25;4960115;29;20021;-86
2021/07/12 06:52:54;;;;;;;;;;;;;;;27.61;44.52;101265.22;4942905;29;19957;-87
2021/07/12 06:55:19;;;;;;;;;;;;;;;27.91;43.99;101258.03;4943422;29;19926;-86
2021/07/12 06:57:44;;;;;;;;;;;;;;;26.42;48.50;101253.34;4959418;29;19925;-88
2021/07/12 07:00:10;;;;;;;;;;;;;;;28.33;42.41;101252.41;4943033;29;20032;-85
2021/07/12 07:02:35;;;;;;;;;;;;;;;27.58;44.64;101268.34;4962346;29;19919;-85
2021/07/12 07:05:02;;;;;;;;;;;;;;;28.48;41.91;101258.06;4942503;29;20316;-85
2021/07/12 07:07:27;;;;;;;;;;;;;;;27.21;45.54;101253.91;4941653;29;19973;-84
2021/07/12 07:09:52;;;;;;;;;;;;;;;27.90;43.50;101250.75;4941493;29;20017;-86
2021/07/12 07:12:17;;;;;;;;;;;;;;;28.72;41.57;101238.47;4941600;29;20017;-83
2021/07/12 07:14:43;;;;;;;;;;;;;;;28.24;42.45;101241.28;4958451;29;20440;-85
2021/07/12 07:17:08;;;;;;;;;;;;;;;28.66;42.28;101227.22;4941409;29;19925;-85
2021/07/12 07:19:33;;;;;;;;;;;;;;;28.38;42.70;101225.72;4958937;29;19965;-86
2021/07/12 07:21:59;;;;;;;;;;;;;;;28.17;43.00;101229.13;4941846;29;19919;-86
2021/07/12 07:24:24;;;;;;;;;;;;;;;29.06;41.17;101228.84;4958943;29;19919;-85
2021/07/12 07:26:49;;;;;;;;;;;;;;;28.84;41.41;101226.91;4941563;29;20017;-86
2021/07/12 07:29:15;;;;;;;;;;;;;;;29.32;40.02;101224.81;4941696;29;19919;-84
2021/07/12 07:31:41;;;;;;;;;;;;;;;28.57;42.02;101230.00;4942082;29;19918;-84
2021/07/12 07:34:07;;;;;;;;;;;;;;;29.94;39.52;101217.25;4958108;29;19926;-85
2021/07/12 07:36:39;;;;;;;;;;;;;;;30.51;38.04;101224.09;4941245;29;19918;-84
2021/07/12 07:39:04;;;;;;;;;;;;;;;29.28;40.09;101224.34;4941064;29;20372;-81
2021/07/12 07:41:29;;;;;;;;;;;;;;;29.67;39.85;101223.28;4943611;29;19947;-85
2021/07/12 07:43:55;;;;;;;;;;;;;;;29.67;39.67;101214.91;4921577;29;19923;-84
2021/07/12 07:46:20;;;;;;;;;;;;;;;28.64;41.95;101224.63;4936990;29;19919;-85
2021/07/12 07:48:45;;;;;;;;;;;;;;;29.20;40.76;101224.38;4937152;29;19925;-87
2021/07/12 07:51:11;;;;;;;;;;;;;;;29.75;39.58;101224.25;4938194;29;19919;-83
2021/07/12 07:53:36;;;;;;;;;;;;;;;30.14;37.95;101225.94;4938892;29;19978;-84
2021/07/12 07:56:01;;;;;;;;;;;;;;;30.40;37.52;101225.47;4938357;29;19957;-84
2021/07/12 07:58:27;;;;;;;;;;;;;;;30.75;37.18;101231.25;4923001;29;19969;-84
2021/07/12 08:00:52;;;;;;;;;;;;;;;30.35;37.60;101225.16;4947476;29;19950;-83
2021/07/12 08:03:17;;;;;;;;;;;;;;;28.91;39.54;101217.66;4946921;29;19982;-83
2021/07/12 08:05:42;;;;;;;;;;;;;;;30.27;37.34;101211.28;4938035;29;19927;-83
2021/07/12 08:08:08;;;;;;;;;;;;;;;30.46;38.32;101209.84;4937882;29;19919;-84
2021/07/12 08:10:34;;;;;;;;;;;;;;;30.96;36.67;101202.47;4939669;29;20403;-85
2021/07/12 08:12:59;;;;;;;;;;;;;;;30.07;39.25;101208.22;4957411;29;19997;-85
2021/07/12 08:15:24;;;;;;;;;;;;;;;30.75;37.42;101204.19;4940686;29;19922;-87
2021/07/12 08:17:50;;;;;;;;;;;;;;;31.37;36.58;101201.78;4940619;29;19925;-86
2021/07/12 08:20:16;;;;;;;;;;;;;;;31.12;36.35;101198.56;4940348;29;20273;-85
2021/07/12 08:22:45;;;;;;;;;;;;;;;30.21;36.69;101196.19;4958028;29;19969;-85
2021/07/12 08:25:10;;;;;;;;;;;;;;;30.56;37.54;101197.31;4941379;29;20025;-85
2021/07/12 08:27:36;;;;;;;;;;;;;;;30.60;36.50;101189.38;4958316;29;19953;-87
2021/07/12 08:30:03;;;;;;;;;;;;;;;30.87;35.98;101186.91;4941373;29;19954;-87
2021/07/12 08:32:28;;;;;;;;;;;;;;;31.74;34.65;101184.91;4940903;29;19969;-86
2021/07/12 08:34:53;;;;;;;;;;;;;;;31.03;36.23;101177.44;4940705;29;19930;-86
2021/07/12 08:37:18;;;;;;;;;;;;;;;30.79;34.96;101181.44;4941239;29;20013;-87
2021/07/12 08:39:44;;;;;;;;;;;;;;;30.61;35.81;101174.38;4940907;29;19919;-87
2021/07/12 08:42:12;;;;;;;;;;;;;;;31.14;34.33;101173.22;4941061;29;19919;-85
2021/07/12 08:44:38;;;;;;;;;;;;;;;30.75;34.93;101173.47;4940747;29;19922;-84
2021/07/12 08:47:05;;;;;;;;;;;;;;;30.79;34.26;101175.88;4939943;29;19930;-83
2021/07/12 08:49:30;;;;;;;;;;;;;;;30.98;34.50;101178.03;4956606;29;19918;-85
2021/07/12 08:51:55;;;;;;;;;;;;;;;31.37;32.64;101182.22;4940498;29;19925;-85
2021/07/12 08:54:21;;;;;;;;;;;;;;;30.92;34.21;101185.25;4940225;29;19965;-86
2021/07/12 08:56:48;;;;;;;;;;;;;;;31.28;33.80;101180.63;4956352;28;20277;-87
2021/07/12 08:59:31;;;;;;;;;;;;;;;31.44;33.49;101174.75;4940325;29;19919;-87
2021/07/12 09:02:04;;;;;;;;;;;;;;;31.45;34.30;101168.09;4940724;29;19942;-86
2021/07/12 09:04:29;;;;;;;;;;;;;;;31.70;33.04;101167.66;4940276;28;20343;-85
2021/07/12 09:06:58;;;;;;;;;;;;;;;31.58;33.28;101163.69;4957620;29;19930;-85
2021/07/12 09:09:23;;;;;;;;;;;;;;;32.05;32.60;101164.84;4939353;29;19930;-81
2021/07/12 09:11:48;;;;;;;;;;;;;;;32.80;31.30;101167.75;4939074;29;19918;-85
2021/07/12 09:14:14;;;;;;;;;;;;;;;32.43;32.30;101164.41;4939835;29;19919;-85
2021/07/12 09:16:44;;;;;;;;;;;;;;;32.07;31.64;101171.09;4940481;29;19926;-87
2021/07/12 09:19:10;;;;;;;;;;;;;;;32.09;31.33;101163.34;4940265;29;19918;-85
2021/07/12 09:21:38;;;;;;;;;;;;;;;33.32;30.17;101155.94;4940802;29;20295;-86
2021/07/12 09:24:17;;;;;;;;;;;;;;;32.59;31.50;101159.47;4941135;29;20017;-85
2021/07/12 09:26:43;;;;;;;;;;;;;;;32.19;31.54;101164.94;4940634;29;19966;-86
2021/07/12 09:29:16;;;;;;;;;;;;;;;33.10;30.64;101164.53;4939549;29;19922;-87
2021/07/12 09:31:41;;;;;;;;;;;;;;;32.09;31.54;101159.69;4956590;29;19926;-86
2021/07/12 09:34:06;;;;;;;;;;;;;;;32.15;31.76;101158.91;4940059;29;19918;-87
2021/07/12 09:36:32;;;;;;;;;;;;;;;31.42;33.35;101154.53;4941431;29;20397;-87
2021/07/12 09:38:57;;;;;;;;;;;;;;;33.07;30.63;101153.75;4940254;29;19922;-88
2021/07/12 09:41:29;;;;;;;;;;;;;;;32.53;31.39;101146.31;4939802;29;19922;-87
2021/07/12 09:44:01;;;;;;;;;;;;;;;32.92;30.47;101151.16;4940277;29;19918;-86
2021/07/12 09:46:29;;;;;;;;;;;;;;;32.47;31.23;101146.06;4940106;29;19918;-86
2021/07/12 09:49:06;;;;;;;;;;;;;;;33.24;30.62;101151.41;4940527;29;19925;-86
2021/07/12 09:51:33;;;;;;;;;;;;;;;32.56;30.65;101148.69;4939964;29;19954;-86
2021/07/12 09:53:58;;;;;;;;;;;;;;;33.14;30.16;101146.22;4940360;29;20376;-86
2021/07/12 09:56:26;;;;;;;;;;;;;;;33.18;30.42;101147.50;4939874;29;19918;-87
2021/07/12 09:58:55;;;;;;;;;;;;;;;33.04;30.63;101151.38;4924805;29;19958;-86
2021/07/12 10:01:23;;;;;;;;;;;;;;;33.55;29.82;101135.88;4939325;29;19923;-88
2021/07/12 10:03:49;;;;;;;;;;;;;;;32.78;30.85;101130.69;4939579;29;19918;-86
2021/07/12 10:06:15;;;;;;;;;;;;;;;33.18;30.19;101127.88;4957153;28;19922;-86
2021/07/12 10:08:58;;;;;;;;;;;;;;;33.51;29.21;101137.38;4940489;29;19922;-86
2021/07/12 10:11:23;;;;;;;;;;;;;;;31.91;31.40;101135.06;4943095;29;19925;-86
2021/07/12 10:13:48;;;;;;;;;;;;;;;32.50;29.39;101128.84;4943458;29;20276;-86
2021/07/12 10:16:14;;;;;;;;;;;;;;;33.13;28.92;101129.63;4960784;29;19919;-87
2021/07/12 10:18:40;;;;;;;;;;;;;;;33.24;28.40;101130.94;4944648;29;19918;-87
2021/07/12 10:21:06;;;;;;;;;;;;;;;32.47;29.77;101126.47;4943540;29;19924;-86
2021/07/12 10:23:32;;;;;;;;;;;;;;;32.89;29.45;101129.16;4960119;29;19919;-85
2021/07/12 10:25:57;;;;;;;;;;;;;;;33.21;28.42;101119.06;4943860;29;20302;-86
2021/07/12 10:28:36;;;;;;;;;;;;;;;33.58;27.67;101117.72;4943017;29;19928;-85
2021/07/12 10:31:15;;;;;;;;;;;;;;;33.39;28.45;101117.53;4959937;29;19918;-85
2021/07/12 10:33:40;;;;;;;;;;;;;;;33.72;28.50;101122.22;4960518;29;19926;-86
2021/07/12 10:36:07;;;;;;;;;;;;;;;33.54;29.01;101118.16;4944208;29;19919;-86
2021/07/12 10:38:37;;;;;;;;;;;;;;;33.96;27.91;101123.47;4943453;29;19922;-85
2021/07/12 10:41:14;;;;;;;;;;;;;;;33.02;28.72;101114.31;4961969;29;19914;-86
2021/07/12 10:43:42;;;;;;;;;;;;;;;31.77;31.13;101111.75;4942827;29;19919;-87
2021/07/12 10:46:08;;;;;;;;;;;;;;;32.97;29.24;101116.88;4941693;29;19981;-84
2021/07/12 10:48:35;;;;;;;;;;;;;;;33.77;28.25;101118.78;4958143;29;20407;-85
2021/07/12 10:51:17;;;;;;;;;;;;;;;33.04;28.51;101117.75;4941534;29;19929;-86
2021/07/12 10:53:43;;;;;;;;;;;;;;;32.33;29.31;101124.72;4956484;29;19926;-87
2021/07/12 10:56:10;;;;;;;;;;;;;;;33.45;28.47;101116.66;4941867;29;20387;-86
2021/07/12 10:58:37;;;;;;;;;;;;;;;34.65;26.47;101126.59;4942604;29;19922;-86
2021/07/12 11:01:07;;;;;;;;;;;;;;;33.97;27.11;101122.41;4942719;29;20013;-85
2021/07/12 11:03:44;;;;;;;;;;;;;;;33.56;27.70;101129.16;4942049;29;19977;-85
2021/07/12 11:06:14;;;;;;;;;;;;;;;34.32;27.06;101129.59;4939059;29;19962;-84
2021/07/12 11:08:42;;;;;;;;;;;;;;;33.58;27.52;101123.31;4941672;29;19926;-86
2021/07/12 11:11:08;;;;;;;;;;;;;;;33.91;26.72;101115.72;4958753;29;19918;-88
2021/07/12 11:13:49;;;;;;;;;;;;;;;34.16;27.53;101114.94;4940918;29;19950;-85
2021/07/12 11:16:16;;;;;;;;;;;;;;;33.24;28.35;101106.56;4949698;29;20384;-85
2021/07/12 11:18:42;;;;;;;;;;;;;;;34.16;27.02;101114.94;4965747;29;19929;-86
2021/07/12 11:21:09;;;;;;;;;;;;;;;35.16;25.94;101109.78;4945579;29;20021;-87
2021/07/12 11:23:47;;;;;;;;;;;;;;;34.13;27.33;101109.78;4963295;29;19996;-87
2021/07/12 11:26:16;;;;;;;;;;;;;;;34.31;27.13;101111.03;4940630;29;19926;-86
2021/07/12 11:28:43;;;;;;;;;;;;;;;33.89;27.44;101109.44;4941236;29;20005;-87
2021/07/12 11:31:27;;;;;;;;;;;;;;;34.09;27.75;101103.75;4941374;29;19933;-86
2021/07/12 11:33:57;;;;;;;;;;;;;;;34.47;27.58;101104.88;4941123;29;19919;-87
2021/07/12 11:36:22;;;;;;;;;;;;;;;31.64;32.52;101101.34;4941624;29;19925;-86
2021/07/12 11:38:47;;;;;;;;;;;;;;;33.25;30.08;101102.69;4941093;29;20391;-85
2021/07/12 11:41:13;;;;;;;;;;;;;;;32.68;30.62;101110.59;4957624;29;19918;-86
2021/07/12 11:43:38;;;;;;;;;;;;;;;33.32;29.09;101109.16;4939973;29;19966;-84
2021/07/12 11:46:03;;;;;;;;;;;;;;;34.48;27.31;101111.34;4940826;29;20399;-85
2021/07/12 11:48:28;;;;;;;;;;;;;;;34.58;28.10;101101.34;4939412;29;19918;-85
2021/07/12 11:50:53;;;;;;;;;;;;;;;34.38;27.15;101109.06;4938468;29;20005;-85
2021/07/12 11:53:19;;;;;;;;;;;;;;;33.95;28.05;101102.09;4938824;29;20327;-85
2021/07/12 11:55:44;;;;;;;;;;;;;;;34.22;28.06;101101.97;4956066;29;20396;-83
2021/07/12 11:58:09;;;;;;;;;;;;;;;34.34;28.06;101105.81;4938807;29;19966;-85
2021/07/12 12:00:36;;;;;;;;;;;;;;;33.64;29.04;101089.66;4957587;29;19977;-85
2021/07/12 12:03:03;;;;;;;;;;;;;;;34.65;27.88;101094.81;4940050;29;19941;-85
2021/07/12 12:05:29;;;;;;;;;;;;;;;33.60;28.87;101098.72;4939768;29;19934;-85
2021/07/12 12:07:57;;;;;;;;;;;;;;;32.33;30.63;101091.13;4939832;29;19922;-85
2021/07/12 12:10:44;;;;;;;;;;;;;;;33.14;29.43;101081.75;4957786;29;19926;-85
2021/07/12 12:13:09;;;;;;;;;;;;;;;33.67;28.41;101083.59;4940198;29;19918;-85
2021/07/12 12:15:36;;;;;;;;;;;;;;;33.87;29.07;101093.94;4940233;29;19926;-85
2021/07/12 12:18:04;;;;;;;;;;;;;;;33.51;28.85;101089.69;4940045;29;19918;-84
2021/07/12 12:20:31;;;;;;;;;;;;;;;33.50;29.40;101077.63;4939970;29;20392;-85
2021/07/12 12:23:15;;;;;;;;;;;;;;;34.48;28.55;101070.06;4957285;29;19922;-85
2021/07/12 12:26:22;;;;;;;;;;;;;;;35.32;27.43;101061.41;4957017;29;19926;-85
2021/07/12 12:28:55;;;;;;;;;;;;;;;35.13;28.32;101061.38;4860496;29;19920;-84
2021/07/12 12:31:26;;;;;;;;;;;;;;;35.52;27.35;101061.19;4927903;29;20277;-84
2021/07/12 12:34:06;;;;;;;;;;;;;;;35.41;27.42;101056.34;4939249;29;19925;-84
2021/07/12 12:36:35;;;;;;;;;;;;;;;35.59;27.32;101050.72;4956766;29;20021;-85
2021/07/12 12:39:04;;;;;;;;;;;;;;;35.71;27.93;101049.91;4939694;29;19918;-85